createdAt,value
2022-10-22T00:00:17.417Z,84.37
2022-10-22T00:02:44.825Z,84.41
2022-10-22T00:05:11.330Z,84.49
2022-10-22T00:07:38.419Z,84.38
2022-10-22T00:10:05.473Z,83.96
2022-10-22T00:12:32.011Z,84.23
2022-10-22T00:14:58.511Z,83.90
2022-10-22T00:17:25.324Z,84.32
2022-10-22T00:19:52.274Z,84.59
2022-10-22T00:22:18.998Z,84.16
2022-10-22T00:24:48.156Z,84.61
2022-10-22T00:27:15.330Z,84.67
2022-10-22T00:29:42.203Z,85.05
2022-10-22T00:32:08.783Z,84.74
2022-10-22T00:34:35.294Z,84.70
2022-10-22T00:37:02.103Z,84.85
2022-10-22T00:39:28.828Z,84.96
2022-10-22T00:41:57.523Z,85.08
2022-10-22T00:44:42.599Z,85.25
2022-10-22T00:47:09.182Z,85.38
2022-10-22T00:49:35.840Z,85.23
2022-10-22T00:52:02.224Z,85.85
2022-10-22T00:54:28.573Z,85.13
2022-10-22T00:56:54.954Z,85.11
2022-10-22T00:59:25.090Z,85.65
2022-10-22T01:01:52.837Z,84.55
2022-10-22T01:04:19.772Z,85.20
2022-10-22T01:06:47.464Z,85.38
2022-10-22T01:09:24.011Z,85.69
2022-10-22T01:12:09.318Z,85.95
2022-10-22T01:14:55.524Z,84.95
2022-10-22T01:17:31.574Z,85.05
2022-10-22T01:20:04.270Z,85.40
2022-10-22T01:22:39.145Z,85.26
2022-10-22T01:25:11.432Z,85.37
2022-10-22T01:27:57.249Z,85.62
2022-10-22T01:30:25.119Z,86.20
2022-10-22T01:32:53.651Z,85.70
2022-10-22T01:35:26.679Z,85.55
2022-10-22T01:37:55.693Z,86.13
2022-10-22T01:40:22.945Z,85.77
2022-10-22T01:42:59.609Z,86.08
2022-10-22T01:45:26.036Z,86.16
2022-10-22T01:47:52.700Z,85.93
2022-10-22T01:50:37.552Z,86.14
2022-10-22T01:53:09.778Z,86.67
2022-10-22T01:55:41.823Z,86.50
2022-10-22T01:58:28.376Z,86.75
2022-10-22T02:01:14.964Z,87.04
2022-10-22T02:04:00.358Z,86.83
2022-10-22T02:06:27.522Z,86.61
2022-10-22T02:08:54.569Z,86.77
2022-10-22T02:11:21.199Z,86.69
2022-10-22T02:13:51.201Z,86.84
2022-10-22T02:16:30.635Z,86.72
2022-10-22T02:18:58.659Z,87.07
2022-10-22T02:21:25.113Z,86.85
2022-10-22T02:23:51.606Z,87.14
2022-10-22T02:26:30.707Z,86.85
2022-10-22T02:29:10.328Z,87.47
2022-10-22T02:31:38.176Z,86.69
2022-10-22T02:34:08.820Z,86.80
2022-10-22T02:36:36.514Z,86.81
2022-10-22T02:39:03.759Z,86.83
2022-10-22T02:41:30.354Z,86.92
2022-10-22T02:43:56.971Z,86.91
2022-10-22T02:46:24.260Z,86.71
2022-10-22T02:48:50.570Z,86.76
2022-10-22T02:51:16.887Z,86.87
2022-10-22T02:53:43.190Z,86.71
2022-10-22T02:56:09.545Z,86.79
2022-10-22T02:58:35.835Z,87.06
2022-10-22T03:01:02.241Z,87.05
2022-10-22T03:03:28.626Z,87.75
2022-10-22T03:05:54.925Z,87.29
2022-10-22T03:08:21.335Z,87.86
2022-10-22T03:10:47.613Z,87.55
2022-10-22T03:13:13.971Z,88.54
2022-10-22T03:15:40.280Z,87.68
2022-10-22T03:18:06.700Z,88.21
2022-10-22T03:20:33.003Z,87.89
2022-10-22T03:23:00.529Z,88.58
2022-10-22T03:25:27.613Z,88.57
2022-10-22T03:27:55.807Z,88.44
2022-10-22T03:30:23.325Z,87.83
2022-10-22T03:32:49.588Z,87.90
2022-10-22T03:35:15.879Z,88.19
2022-10-22T03:37:42.820Z,88.35
2022-10-22T03:40:11.365Z,88.38
2022-10-22T03:42:37.777Z,88.31
2022-10-22T03:45:04.457Z,88.47
2022-10-22T03:47:30.731Z,88.67
2022-10-22T03:49:57.021Z,88.86
2022-10-22T03:52:23.342Z,88.37
2022-10-22T03:54:49.667Z,88.58
2022-10-22T03:57:15.979Z,88.59
2022-10-22T03:59:43.682Z,88.63
2022-10-22T04:02:10.691Z,88.87
2022-10-22T04:04:37.644Z,88.82
2022-10-22T04:07:04.877Z,88.78
2022-10-22T04:09:32.201Z,88.49
2022-10-22T04:11:58.761Z,88.44
2022-10-22T04:14:25.065Z,88.51
2022-10-22T04:16:51.369Z,88.80
2022-10-22T04:19:18.252Z,88.80
2022-10-22T04:21:44.629Z,89.19
2022-10-22T04:24:10.901Z,89.74
2022-10-22T04:26:37.182Z,89.05
2022-10-22T04:29:03.644Z,88.81
2022-10-22T04:31:29.977Z,89.04
2022-10-22T04:33:57.217Z,88.81
2022-10-22T04:36:23.525Z,89.35
2022-10-22T04:39:08.014Z,89.29
2022-10-22T04:41:38.016Z,89.10
2022-10-22T04:44:04.918Z,89.13
2022-10-22T04:46:32.734Z,89.25
2022-10-22T04:48:59.232Z,89.17
2022-10-22T04:51:26.810Z,88.95
2022-10-22T04:53:53.633Z,89.16
2022-10-22T04:56:21.622Z,89.24
2022-10-22T04:58:52.641Z,89.09
2022-10-22T05:01:20.118Z,89.10
2022-10-22T05:03:47.066Z,88.93
2022-10-22T05:06:14.329Z,88.85
2022-10-22T05:08:40.737Z,89.09
2022-10-22T05:11:14.139Z,88.87
2022-10-22T05:13:41.500Z,88.89
2022-10-22T05:16:07.922Z,88.90
2022-10-22T05:18:35.945Z,88.65
2022-10-22T05:21:02.574Z,88.77
2022-10-22T05:23:29.125Z,88.62
2022-10-22T05:25:55.422Z,88.57
2022-10-22T05:28:21.752Z,88.68
2022-10-22T05:30:54.895Z,88.46
2022-10-22T05:33:24.055Z,88.58
2022-10-22T05:35:50.612Z,88.71
2022-10-22T05:38:17.070Z,88.72
2022-10-22T05:40:43.392Z,88.76
2022-10-22T05:43:09.923Z,88.55
2022-10-22T05:45:37.327Z,88.50
2022-10-22T05:48:03.737Z,88.86
2022-10-22T05:50:30.071Z,88.83
2022-10-22T05:52:56.377Z,88.51
2022-10-22T05:55:22.693Z,88.42
2022-10-22T05:57:50.109Z,88.56
2022-10-22T06:00:19.488Z,88.48
2022-10-22T06:02:49.169Z,88.57
2022-10-22T06:05:15.531Z,88.13
2022-10-22T06:07:41.856Z,88.12
2022-10-22T06:10:14.080Z,88.38
2022-10-22T06:12:40.682Z,88.44
2022-10-22T06:15:07.505Z,88.37
2022-10-22T06:17:33.809Z,88.30
2022-10-22T06:20:00.213Z,88.31
2022-10-22T06:22:26.548Z,88.31
2022-10-22T06:24:52.951Z,88.66
2022-10-22T06:27:19.262Z,88.53
2022-10-22T06:29:45.562Z,88.56
2022-10-22T06:32:11.884Z,88.63
2022-10-22T06:34:38.497Z,88.60
2022-10-22T06:37:04.832Z,88.44
2022-10-22T06:39:31.141Z,88.19
2022-10-22T06:41:57.437Z,88.35
2022-10-22T06:44:23.725Z,88.49
2022-10-22T06:46:52.042Z,88.03
2022-10-22T06:49:18.874Z,88.09
2022-10-22T06:51:45.224Z,88.08
2022-10-22T06:54:12.053Z,88.09
2022-10-22T06:56:38.369Z,88.06
2022-10-22T06:59:04.662Z,87.86
2022-10-22T07:01:33.041Z,87.89
2022-10-22T07:03:59.793Z,87.83
2022-10-22T07:06:26.841Z,87.79
2022-10-22T07:08:54.357Z,87.38
2022-10-22T07:11:22.162Z,87.49
2022-10-22T07:13:50.163Z,87.40
2022-10-22T07:16:17.289Z,87.43
2022-10-22T07:18:44.021Z,87.46
2022-10-22T07:21:11.776Z,87.50
2022-10-22T07:23:38.275Z,87.38
2022-10-22T07:26:07.380Z,87.28
2022-10-22T07:28:38.763Z,87.17
2022-10-22T07:31:07.041Z,87.15
2022-10-22T07:33:33.329Z,87.30
2022-10-22T07:36:00.504Z,87.01
2022-10-22T07:38:27.374Z,86.84
2022-10-22T07:40:53.684Z,86.96
2022-10-22T07:43:20.258Z,86.64
2022-10-22T07:45:46.817Z,86.96
2022-10-22T07:48:13.618Z,86.74
2022-10-22T07:50:40.164Z,86.58
2022-10-22T07:53:06.480Z,86.41
2022-10-22T07:55:33.376Z,86.37
2022-10-22T07:57:59.665Z,86.64
2022-10-22T08:00:26.176Z,86.34
2022-10-22T08:02:52.577Z,86.65
2022-10-22T08:05:18.939Z,86.31
2022-10-22T08:07:45.293Z,86.43
2022-10-22T08:10:11.990Z,85.92
2022-10-22T08:12:38.709Z,85.41
2022-10-22T08:15:05.838Z,85.25
2022-10-22T08:17:32.108Z,85.07
2022-10-22T08:19:58.378Z,84.63
2022-10-22T08:22:24.721Z,84.10
2022-10-22T08:24:51.031Z,83.94
2022-10-22T08:27:17.324Z,83.36
2022-10-22T08:29:43.646Z,83.35
2022-10-22T08:32:09.982Z,83.11
2022-10-22T08:34:36.266Z,82.80
2022-10-22T08:37:02.557Z,83.05
2022-10-22T08:39:28.873Z,82.52
2022-10-22T08:42:14.088Z,82.33
2022-10-22T08:45:06.796Z,82.28
2022-10-22T08:47:51.877Z,82.16
2022-10-22T08:50:22.744Z,81.71
2022-10-22T08:52:52.690Z,81.83
2022-10-22T08:55:20.040Z,81.33
2022-10-22T08:58:18.384Z,81.27
2022-10-22T09:00:46.727Z,80.95
2022-10-22T09:03:21.913Z,80.78
2022-10-22T09:05:53.882Z,80.81
2022-10-22T09:08:20.630Z,80.62
2022-10-22T09:10:49.459Z,80.24
2022-10-22T09:13:18.410Z,79.92
2022-10-22T09:15:47.349Z,79.77
2022-10-22T09:18:32.572Z,79.84
2022-10-22T09:21:03.311Z,79.62
2022-10-22T09:23:35.998Z,79.64
2022-10-22T09:26:02.700Z,79.01
2022-10-22T09:28:29.054Z,78.35
2022-10-22T09:30:55.460Z,78.29
2022-10-22T09:33:26.270Z,77.32
2022-10-22T09:36:03.295Z,77.86
2022-10-22T09:38:31.054Z,77.43
2022-10-22T09:40:58.594Z,77.60
2022-10-22T09:43:25.480Z,77.99
2022-10-22T09:46:03.272Z,78.28
2022-10-22T09:48:32.219Z,78.68
2022-10-22T09:51:17.468Z,78.65
2022-10-22T09:53:45.397Z,78.96
2022-10-22T09:56:28.833Z,79.03
2022-10-22T09:58:56.545Z,78.53
2022-10-22T10:01:27.279Z,78.79
2022-10-22T10:03:53.637Z,78.80
2022-10-22T10:06:21.238Z,79.00
2022-10-22T10:08:48.285Z,78.32
2022-10-22T10:11:26.766Z,78.43
2022-10-22T10:14:13.408Z,78.10
2022-10-22T10:16:39.759Z,77.91
2022-10-22T10:19:25.835Z,77.70
2022-10-22T10:21:52.106Z,77.01
2022-10-22T10:24:24.504Z,77.33
2022-10-22T10:27:04.929Z,76.72
2022-10-22T10:32:25.782Z,76.95
2022-10-22T10:34:52.102Z,76.41
2022-10-22T10:37:22.273Z,76.50
2022-10-22T10:40:07.429Z,76.20
2022-10-22T10:42:36.586Z,76.24
2022-10-22T10:45:05.689Z,76.29
2022-10-22T10:47:36.032Z,76.14
2022-10-22T10:50:18.853Z,76.08
2022-10-22T10:52:49.164Z,75.61
2022-10-22T10:55:18.520Z,75.74
2022-10-22T10:57:50.373Z,75.81
2022-10-22T11:00:19.900Z,75.80
2022-10-22T11:03:05.009Z,75.47
2022-10-22T11:05:37.603Z,73.38
2022-10-22T11:08:17.408Z,71.23
2022-10-22T11:10:46.419Z,69.92
2022-10-22T11:13:18.563Z,68.74
2022-10-22T11:15:57.184Z,67.67
2022-10-22T11:18:37.261Z,66.53
2022-10-22T11:21:08.740Z,66.14
2022-10-22T11:23:35.004Z,64.64
2022-10-22T11:26:02.138Z,63.30
2022-10-22T11:28:43.767Z,63.17
2022-10-22T11:31:13.124Z,63.00
2022-10-22T11:33:43.573Z,62.74
2022-10-22T11:36:10.579Z,62.24
2022-10-22T11:38:38.147Z,62.42
2022-10-22T11:41:11.577Z,63.47
2022-10-22T11:43:59.456Z,63.54
2022-10-22T11:46:28.738Z,64.00
2022-10-22T11:49:04.204Z,63.58
2022-10-22T11:51:35.351Z,64.44
2022-10-22T11:54:03.448Z,63.61
2022-10-22T11:56:37.502Z,65.24
2022-10-22T11:59:04.022Z,63.98
2022-10-22T12:01:40.685Z,64.26
2022-10-22T12:04:18.010Z,64.46
2022-10-22T12:07:00.824Z,64.87
2022-10-22T12:09:30.228Z,64.11
2022-10-22T12:12:02.711Z,63.26
2022-10-22T12:14:33.645Z,61.32
2022-10-22T12:17:00.026Z,60.70
2022-10-22T12:19:30.714Z,60.23
2022-10-22T12:22:13.564Z,58.86
2022-10-22T12:24:45.189Z,58.13
2022-10-22T12:27:22.208Z,58.81
2022-10-22T12:29:49.360Z,58.36
2022-10-22T12:32:16.493Z,58.12
2022-10-22T12:37:21.878Z,59.63
2022-10-22T12:39:48.216Z,58.55
2022-10-22T12:42:15.534Z,59.64
2022-10-22T12:44:43.125Z,60.25
2022-10-22T12:47:15.061Z,59.86
2022-10-22T12:49:42.994Z,59.88
2022-10-22T12:52:15.978Z,57.99
2022-10-22T12:54:42.278Z,58.08
2022-10-22T12:57:13.326Z,58.53
2022-10-22T12:59:42.855Z,58.10
2022-10-22T13:02:17.140Z,57.77
2022-10-22T13:05:03.428Z,57.63
2022-10-22T13:07:37.985Z,58.09
2022-10-22T13:10:14.496Z,57.09
2022-10-22T13:12:44.252Z,56.50
2022-10-22T13:15:21.134Z,57.28
2022-10-22T13:17:48.972Z,57.68
2022-10-22T13:20:22.606Z,58.55
2022-10-22T13:22:54.051Z,58.48
2022-10-22T13:25:22.328Z,58.75
2022-10-22T13:27:50.307Z,58.91
2022-10-22T13:30:22.547Z,58.05
2022-10-22T13:32:50.610Z,57.25
2022-10-22T13:35:18.862Z,57.26
2022-10-22T13:37:45.150Z,56.51
2022-10-22T13:40:14.446Z,56.33
2022-10-22T13:42:40.992Z,56.21
2022-10-22T13:45:07.666Z,56.44
2022-10-22T13:47:34.230Z,55.87
2022-10-22T13:50:03.085Z,56.01
2022-10-22T13:52:36.690Z,55.71
2022-10-22T13:55:12.905Z,55.26
2022-10-22T13:57:39.203Z,55.65
2022-10-22T14:00:05.992Z,55.38
2022-10-22T14:02:32.358Z,55.42
2022-10-22T14:05:03.211Z,55.24
2022-10-22T14:07:29.635Z,54.98
2022-10-22T14:09:55.939Z,54.55
2022-10-22T14:12:22.462Z,55.64
2022-10-22T14:14:48.770Z,56.06
2022-10-22T14:17:16.763Z,55.77
2022-10-22T14:19:44.833Z,55.95
2022-10-22T14:22:13.652Z,56.06
2022-10-22T14:24:39.921Z,56.09
2022-10-22T14:27:06.218Z,56.31
2022-10-22T14:29:32.525Z,55.60
2022-10-22T14:31:58.829Z,55.08
2022-10-22T14:34:25.165Z,56.18
2022-10-22T14:36:51.455Z,54.30
2022-10-22T14:39:18.539Z,55.36
2022-10-22T14:41:44.857Z,55.73
2022-10-22T14:44:13.774Z,55.23
2022-10-22T14:46:42.585Z,55.89
2022-10-22T14:49:08.893Z,56.18
2022-10-22T14:51:35.181Z,56.38
2022-10-22T14:54:01.567Z,54.81
2022-10-22T14:56:27.936Z,56.72
2022-10-22T14:58:54.259Z,56.12
2022-10-22T15:01:20.712Z,57.18
2022-10-22T15:03:47.004Z,56.78
2022-10-22T15:06:13.449Z,55.61
2022-10-22T15:08:39.785Z,57.00
2022-10-22T15:11:07.716Z,56.63
2022-10-22T15:13:34.785Z,56.20
2022-10-22T15:16:01.343Z,55.71
2022-10-22T15:18:27.822Z,56.48
2022-10-22T15:20:55.082Z,56.66
2022-10-22T15:23:21.433Z,56.65
2022-10-22T15:25:47.705Z,56.76
2022-10-22T15:28:14.266Z,57.19
2022-10-22T15:30:40.592Z,57.11
2022-10-22T15:33:06.962Z,57.00
2022-10-22T15:35:35.946Z,57.24
2022-10-22T15:38:02.523Z,57.50
2022-10-22T15:40:28.810Z,57.69
2022-10-22T15:42:55.186Z,58.36
2022-10-22T15:45:22.413Z,57.91
2022-10-22T15:47:49.293Z,58.63
2022-10-22T15:50:15.935Z,59.16
2022-10-22T15:52:42.311Z,59.61
2022-10-22T15:55:10.463Z,59.90
2022-10-22T15:57:37.162Z,59.35
2022-10-22T16:00:05.002Z,60.03
2022-10-22T16:02:31.597Z,60.57
2022-10-22T16:04:58.716Z,60.92
2022-10-22T16:07:25.770Z,60.93
2022-10-22T16:09:55.290Z,60.63
2022-10-22T16:12:21.592Z,61.43
2022-10-22T16:14:50.097Z,62.51
2022-10-22T16:17:16.610Z,61.94
2022-10-22T16:19:42.957Z,62.86
2022-10-22T16:22:11.381Z,62.46
2022-10-22T16:24:41.206Z,62.60
2022-10-22T16:27:08.495Z,63.07
2022-10-22T16:29:36.572Z,63.19
2022-10-22T16:32:02.906Z,63.99
2022-10-22T16:34:29.283Z,63.59
2022-10-22T16:36:56.924Z,64.76
2022-10-22T16:39:23.796Z,64.61
2022-10-22T16:41:50.123Z,64.51
2022-10-22T16:44:16.461Z,65.60
2022-10-22T16:46:42.866Z,65.18
2022-10-22T16:49:09.277Z,64.82
2022-10-22T16:51:35.911Z,66.23
2022-10-22T16:54:03.692Z,65.95
2022-10-22T16:56:32.035Z,66.23
2022-10-22T16:58:58.406Z,66.51
2022-10-22T17:01:26.560Z,67.45
2022-10-22T17:03:54.674Z,66.38
2022-10-22T17:06:22.472Z,67.25
2022-10-22T17:08:48.890Z,67.67
2022-10-22T17:11:17.545Z,67.71
2022-10-22T17:13:49.485Z,68.17
2022-10-22T17:16:16.974Z,68.42
2022-10-22T17:21:16.497Z,68.90
2022-10-22T17:23:43.096Z,69.21
2022-10-22T17:26:13.454Z,70.64
2022-10-22T17:28:39.771Z,70.45
2022-10-22T17:31:11.182Z,70.09
2022-10-22T17:33:37.761Z,70.00
2022-10-22T17:36:09.032Z,69.37
2022-10-22T17:38:35.508Z,70.76
2022-10-22T17:41:04.198Z,70.46
2022-10-22T17:43:33.616Z,70.44
2022-10-22T17:46:07.386Z,70.62
2022-10-22T17:48:34.106Z,70.30
2022-10-22T17:51:00.501Z,70.88
2022-10-22T17:53:26.923Z,72.00
2022-10-22T17:56:03.775Z,70.78
2022-10-22T17:58:30.819Z,71.98
2022-10-22T18:00:57.866Z,72.22
2022-10-22T18:03:24.745Z,71.32
2022-10-22T18:05:51.048Z,71.63
2022-10-22T18:08:17.674Z,71.40
2022-10-22T18:10:44.068Z,72.04
2022-10-22T18:13:10.499Z,71.61
2022-10-22T18:15:36.984Z,71.65
2022-10-22T18:18:04.017Z,71.96
2022-10-22T18:20:30.735Z,71.60
2022-10-22T18:22:57.043Z,72.56
2022-10-22T18:25:23.374Z,72.63
2022-10-22T18:27:49.690Z,72.53
2022-10-22T18:30:16.094Z,71.55
2022-10-22T18:32:42.368Z,72.86
2022-10-22T18:35:08.711Z,73.31
2022-10-22T18:37:36.678Z,73.87
2022-10-22T18:40:03.216Z,74.10
2022-10-22T18:42:32.811Z,74.13
2022-10-22T18:45:00.978Z,74.39
2022-10-22T18:47:27.691Z,74.26
2022-10-22T18:49:54.045Z,73.50
2022-10-22T18:52:20.687Z,74.52
2022-10-22T18:54:47.088Z,74.63
2022-10-22T18:57:13.527Z,75.05
2022-10-22T18:59:39.948Z,74.94
2022-10-22T19:02:06.232Z,75.24
2022-10-22T19:04:36.952Z,75.26
2022-10-22T19:07:04.499Z,75.54
2022-10-22T19:09:30.882Z,75.32
2022-10-22T19:11:57.208Z,75.80
2022-10-22T19:14:23.749Z,76.04
2022-10-22T19:16:50.065Z,76.07
2022-10-22T19:19:21.063Z,75.75
2022-10-22T19:21:48.538Z,75.20
2022-10-22T19:24:15.866Z,74.60
2022-10-22T19:26:42.178Z,75.49
2022-10-22T19:29:08.497Z,75.33
2022-10-22T19:31:34.798Z,75.55
2022-10-22T19:34:01.518Z,75.67
2022-10-22T19:36:28.766Z,75.69
2022-10-22T19:38:55.093Z,75.99
2022-10-22T19:41:22.954Z,76.23
2022-10-22T19:43:50.300Z,75.94
2022-10-22T19:46:17.384Z,76.08
2022-10-22T19:51:16.833Z,76.44
2022-10-22T19:53:43.345Z,77.38
2022-10-22T19:56:10.894Z,77.45
2022-10-22T19:58:37.772Z,77.87
2022-10-22T20:01:08.095Z,78.64
2022-10-22T20:03:36.341Z,77.63
2022-10-22T20:06:07.525Z,77.78
2022-10-22T20:08:37.620Z,76.84
2022-10-22T20:11:08.864Z,77.21
2022-10-22T20:13:35.704Z,77.65
2022-10-22T20:16:02.357Z,78.20
2022-10-22T20:18:28.663Z,77.82
2022-10-22T20:20:55.039Z,78.75
2022-10-22T20:23:21.356Z,79.28
2022-10-22T20:25:47.740Z,79.60
2022-10-22T20:28:14.147Z,79.09
2022-10-22T20:30:41.487Z,78.85
2022-10-22T20:33:08.012Z,79.15
2022-10-22T20:35:34.896Z,78.13
2022-10-22T20:38:01.244Z,78.26
2022-10-22T20:40:30.347Z,77.79
2022-10-22T20:42:56.658Z,78.74
2022-10-22T20:45:23.050Z,78.65
2022-10-22T20:47:51.839Z,77.85
2022-10-22T20:50:30.681Z,77.83
2022-10-22T20:52:59.435Z,79.22
2022-10-22T20:55:26.156Z,77.89
2022-10-22T20:57:52.541Z,78.98
2022-10-22T21:00:18.901Z,79.11
2022-10-22T21:02:45.300Z,79.02
2022-10-22T21:05:11.923Z,79.45
2022-10-22T21:07:38.241Z,79.57
2022-10-22T21:10:04.807Z,80.42
2022-10-22T21:12:31.439Z,80.63
2022-10-22T21:14:57.844Z,81.07
2022-10-22T21:17:24.222Z,81.70
2022-10-22T21:19:50.584Z,81.97
2022-10-22T21:22:16.887Z,82.17
2022-10-22T21:24:43.209Z,81.96
2022-10-22T21:27:09.749Z,82.19
2022-10-22T21:29:36.038Z,82.38
2022-10-22T21:32:02.750Z,82.26
2022-10-22T21:34:29.157Z,82.42
2022-10-22T21:36:55.609Z,82.73
2022-10-22T21:39:21.986Z,82.75
2022-10-22T21:41:48.654Z,82.54
2022-10-22T21:44:16.042Z,82.13
2022-10-22T21:46:42.388Z,82.38
2022-10-22T21:49:08.705Z,82.67
2022-10-22T21:51:37.933Z,82.60
2022-10-22T21:54:04.682Z,83.25
2022-10-22T21:56:32.711Z,83.20
2022-10-22T21:58:59.170Z,82.93
2022-10-22T22:01:25.508Z,83.18
2022-10-22T22:03:52.510Z,82.49
2022-10-22T22:06:21.655Z,81.74
2022-10-22T22:08:48.941Z,81.61
2022-10-22T22:11:17.038Z,81.51
2022-10-22T22:13:48.790Z,82.48
2022-10-22T22:16:17.557Z,82.85
2022-10-22T22:18:45.967Z,82.96
2022-10-22T22:21:13.980Z,82.88
2022-10-22T22:23:42.025Z,81.64
2022-10-22T22:26:08.957Z,82.96
2022-10-22T22:28:35.785Z,84.04
2022-10-22T22:31:10.917Z,85.02
2022-10-22T22:33:37.217Z,86.24
2022-10-22T22:36:04.490Z,86.77
2022-10-22T22:38:31.081Z,86.50
2022-10-22T22:41:00.681Z,85.75
2022-10-22T22:43:27.639Z,84.59
2022-10-22T22:46:00.983Z,82.59
2022-10-22T22:48:29.541Z,83.47
2022-10-22T22:50:56.508Z,83.76
2022-10-22T22:53:23.742Z,83.73
2022-10-22T22:55:50.964Z,82.40
2022-10-22T22:58:17.567Z,82.49
2022-10-22T23:00:44.364Z,81.77
2022-10-22T23:03:11.702Z,82.47
2022-10-22T23:05:39.622Z,82.16
2022-10-22T23:08:09.037Z,82.46
2022-10-22T23:10:35.621Z,82.63
2022-10-22T23:13:02.661Z,82.25
2022-10-22T23:15:29.475Z,81.77
2022-10-22T23:17:56.918Z,81.63
2022-10-22T23:20:23.674Z,82.36
2022-10-22T23:22:51.973Z,82.05
2022-10-22T23:25:18.393Z,81.23
2022-10-22T23:27:45.703Z,81.17
2022-10-22T23:30:12.402Z,83.24
2022-10-22T23:32:39.546Z,83.21
2022-10-22T23:35:06.359Z,83.89
2022-10-22T23:37:33.155Z,82.59
2022-10-22T23:39:59.769Z,83.20
2022-10-22T23:42:26.344Z,82.77
2022-10-22T23:44:52.829Z,82.48
2022-10-22T23:47:19.999Z,81.63
2022-10-22T23:49:46.631Z,81.09
2022-10-22T23:52:13.226Z,81.25
2022-10-22T23:54:39.624Z,81.01
2022-10-22T23:57:05.968Z,81.51
2022-10-22T23:59:32.549Z,81.61
